createdAt,value
2018-11-11T00:01:46.622Z,23.33
2018-11-11T00:04:13.787Z,23.73
2018-11-11T00:06:40.972Z,23.10
2018-11-11T00:09:08.885Z,23.10
2018-11-11T00:11:36.175Z,22.20
2018-11-11T00:14:03.367Z,22.13
2018-11-11T00:16:30.512Z,23.50
2018-11-11T00:18:57.654Z,22.30
2018-11-11T00:21:24.811Z,24.33
2018-11-11T00:23:51.998Z,22.73
2018-11-11T00:26:19.169Z,23.33
2018-11-11T00:28:46.406Z,23.70
2018-11-11T00:31:13.505Z,25.10
2018-11-11T00:33:40.654Z,23.87
2018-11-11T00:36:07.813Z,24.80
2018-11-11T00:38:34.968Z,23.60
2018-11-11T00:41:02.119Z,25.40
2018-11-11T00:43:29.273Z,24.43
2018-11-11T00:45:56.417Z,23.00
2018-11-11T00:48:23.580Z,27.17
2018-11-11T00:50:50.717Z,25.30
2018-11-11T00:53:19.112Z,26.37
2018-11-11T00:55:46.625Z,26.13
2018-11-11T00:58:13.772Z,26.23
2018-11-11T01:00:41.652Z,25.53
2018-11-11T01:03:08.848Z,29.53
2018-11-11T01:05:36.070Z,26.07
2018-11-11T01:08:03.429Z,27.07
2018-11-11T01:10:30.581Z,27.77
2018-11-11T01:12:57.759Z,27.53
2018-11-11T01:15:24.904Z,27.70
2018-11-11T01:17:52.053Z,28.13
2018-11-11T01:20:19.208Z,27.53
2018-11-11T01:22:46.664Z,26.57
2018-11-11T01:25:14.928Z,26.50
2018-11-11T01:27:42.191Z,27.80
2018-11-11T01:30:09.437Z,28.67
2018-11-11T01:32:36.893Z,28.30
2018-11-11T01:35:05.857Z,27.53
2018-11-11T01:37:33.025Z,28.60
2018-11-11T01:40:00.204Z,26.77
2018-11-11T01:42:27.391Z,28.10
2018-11-11T01:44:54.544Z,27.97
2018-11-11T01:47:21.732Z,26.27
2018-11-11T01:49:48.895Z,27.47
2018-11-11T01:52:16.041Z,26.33
2018-11-11T01:54:43.211Z,28.47
2018-11-11T01:57:10.360Z,29.23
2018-11-11T01:59:37.524Z,27.37
2018-11-11T02:02:04.714Z,28.67
2018-11-11T02:04:31.867Z,28.57
2018-11-11T02:06:59.069Z,26.60
2018-11-11T02:09:26.211Z,27.23
2018-11-11T02:11:53.373Z,26.80
2018-11-11T02:14:20.556Z,28.97
2018-11-11T02:16:47.716Z,28.60
2018-11-11T02:19:15.532Z,29.37
2018-11-11T02:21:42.724Z,29.10
2018-11-11T02:24:09.875Z,29.80
2018-11-11T02:26:37.016Z,30.43
2018-11-11T02:29:04.464Z,28.80
2018-11-11T02:31:31.618Z,28.83
2018-11-11T02:33:58.777Z,29.20
2018-11-11T02:36:25.920Z,28.77
2018-11-11T02:38:53.085Z,27.53
2018-11-11T02:41:20.253Z,29.37
2018-11-11T02:43:47.430Z,28.80
2018-11-11T02:46:14.590Z,26.70
2018-11-11T02:48:41.756Z,29.43
2018-11-11T02:51:08.900Z,28.73
2018-11-11T02:53:36.246Z,31.77
2018-11-11T02:56:03.416Z,29.47
2018-11-11T02:58:30.556Z,27.10
2018-11-11T03:00:57.742Z,28.90
2018-11-11T03:03:24.904Z,27.63
2018-11-11T03:05:52.057Z,28.20
2018-11-11T03:08:19.239Z,29.10
2018-11-11T03:10:46.407Z,28.17
2018-11-11T03:13:13.560Z,28.20
2018-11-11T03:15:40.722Z,27.03
2018-11-11T03:18:07.877Z,27.53
2018-11-11T03:20:35.080Z,26.97
2018-11-11T03:23:02.221Z,27.73
2018-11-11T03:25:29.384Z,30.00
2018-11-11T03:27:56.520Z,29.90
2018-11-11T03:30:23.689Z,28.77
2018-11-11T03:32:50.864Z,30.50
2018-11-11T03:35:18.029Z,30.40
2018-11-11T03:37:46.005Z,29.73
2018-11-11T03:40:16.436Z,30.83
2018-11-11T03:42:43.780Z,30.57
2018-11-11T03:45:12.327Z,29.23
2018-11-11T03:47:39.783Z,29.97
2018-11-11T03:50:07.648Z,29.93
2018-11-11T03:52:34.800Z,31.20
2018-11-11T03:55:01.965Z,32.10
2018-11-11T03:57:29.108Z,29.63
2018-11-11T03:59:56.264Z,29.97
2018-11-11T04:02:23.428Z,31.40
2018-11-11T04:04:50.568Z,30.87
2018-11-11T04:07:17.717Z,32.07
2018-11-11T04:09:44.861Z,33.13
2018-11-11T04:12:12.026Z,32.00
2018-11-11T04:14:39.152Z,31.67
2018-11-11T04:17:06.291Z,30.80
2018-11-11T04:19:33.446Z,31.77
2018-11-11T04:22:05.239Z,32.67
2018-11-11T04:24:32.381Z,31.67
2018-11-11T04:26:59.571Z,32.17
2018-11-11T04:29:26.758Z,31.87
2018-11-11T04:31:53.996Z,30.13
2018-11-11T04:34:21.166Z,31.43
2018-11-11T04:36:48.349Z,30.97
2018-11-11T04:39:15.521Z,32.37
2018-11-11T04:41:42.670Z,32.13
2018-11-11T04:44:09.858Z,31.70
2018-11-11T04:46:37.135Z,30.57
2018-11-11T04:49:04.325Z,32.27
2018-11-11T04:51:31.477Z,30.47
2018-11-11T04:53:58.667Z,32.67
2018-11-11T04:56:25.820Z,30.60
2018-11-11T04:58:52.993Z,30.90
2018-11-11T05:01:20.247Z,29.23
2018-11-11T05:03:47.354Z,29.27
2018-11-11T05:06:14.523Z,30.20
2018-11-11T05:08:41.676Z,28.27
2018-11-11T05:11:08.824Z,29.27
2018-11-11T05:13:35.999Z,27.87
2018-11-11T05:16:03.167Z,28.77
2018-11-11T05:18:30.337Z,27.73
2018-11-11T05:20:57.492Z,28.87
2018-11-11T05:23:24.636Z,29.03
2018-11-11T05:25:51.784Z,26.73
2018-11-11T05:28:18.954Z,28.20
2018-11-11T05:30:46.127Z,28.63
2018-11-11T05:33:13.305Z,27.90
2018-11-11T05:35:40.460Z,27.63
2018-11-11T05:38:07.611Z,28.53
2018-11-11T05:40:34.830Z,27.87
2018-11-11T05:43:01.992Z,30.27
2018-11-11T05:45:29.153Z,30.10
2018-11-11T05:47:56.281Z,28.27
2018-11-11T05:50:23.461Z,30.03
2018-11-11T05:52:50.617Z,27.50
2018-11-11T05:55:17.768Z,26.60
2018-11-11T05:57:44.913Z,26.13
2018-11-11T06:00:13.349Z,29.37
2018-11-11T06:02:40.504Z,27.67
2018-11-11T06:05:08.528Z,30.53
2018-11-11T06:07:35.824Z,30.80
2018-11-11T06:10:03.400Z,29.97
2018-11-11T06:12:30.541Z,29.90
2018-11-11T06:14:57.696Z,30.40
2018-11-11T06:17:24.865Z,28.93
2018-11-11T06:19:52.025Z,39.47
2018-11-11T06:22:19.171Z,36.67
2018-11-11T06:24:46.325Z,34.03
2018-11-11T06:27:13.705Z,31.97
2018-11-11T06:29:40.872Z,35.80
2018-11-11T06:32:08.060Z,33.53
2018-11-11T06:34:35.401Z,34.03
2018-11-11T06:37:02.556Z,33.80
2018-11-11T06:39:29.760Z,32.47
2018-11-11T06:41:56.906Z,33.33
2018-11-11T06:44:24.101Z,33.00
2018-11-11T06:46:51.199Z,31.77
2018-11-11T06:49:18.455Z,29.23
2018-11-11T06:51:45.604Z,30.40
2018-11-11T06:54:12.838Z,31.23
2018-11-11T06:56:40.001Z,33.63
2018-11-11T06:59:07.204Z,35.13
2018-11-11T07:01:34.544Z,34.47
2018-11-11T07:04:02.512Z,33.50
2018-11-11T07:06:30.111Z,32.40
2018-11-11T07:08:57.531Z,31.13
2018-11-11T07:11:24.692Z,28.97
2018-11-11T07:13:51.960Z,28.67
2018-11-11T07:16:19.101Z,25.83
2018-11-11T07:18:46.741Z,25.30
2018-11-11T07:21:14.208Z,26.93
2018-11-11T07:23:41.397Z,24.60
2018-11-11T07:26:08.544Z,24.53
2018-11-11T07:28:35.696Z,23.67
2018-11-11T07:31:02.897Z,22.50
2018-11-11T07:33:30.049Z,21.30
2018-11-11T07:35:57.941Z,20.17
2018-11-11T07:38:25.094Z,21.73
2018-11-11T07:40:53.049Z,19.33
2018-11-11T07:43:20.185Z,21.47
2018-11-11T07:45:47.961Z,21.20
2018-11-11T07:48:15.110Z,20.73
2018-11-11T07:50:42.256Z,20.83
2018-11-11T07:53:09.474Z,20.60
2018-11-11T07:55:36.620Z,20.87
2018-11-11T07:58:03.804Z,21.13
2018-11-11T08:00:30.976Z,20.83
2018-11-11T08:02:58.117Z,19.70
2018-11-11T08:05:25.261Z,18.70
2018-11-11T08:07:52.409Z,19.57
2018-11-11T08:10:25.229Z,19.77
2018-11-11T08:12:52.388Z,18.53
2018-11-11T08:15:19.977Z,17.70
2018-11-11T08:17:47.136Z,18.23
2018-11-11T08:20:14.268Z,16.63
2018-11-11T08:22:41.437Z,17.87
2018-11-11T08:25:08.562Z,17.87
2018-11-11T08:27:35.723Z,18.00
2018-11-11T08:30:02.912Z,18.17
2018-11-11T08:32:30.076Z,18.17
2018-11-11T08:34:57.260Z,17.60
2018-11-11T08:37:24.392Z,17.50
2018-11-11T08:39:51.541Z,17.20
2018-11-11T08:42:18.712Z,17.63
2018-11-11T08:44:45.863Z,18.47
2018-11-11T08:47:13.053Z,16.37
2018-11-11T08:49:40.232Z,16.17
2018-11-11T08:52:07.512Z,17.80
2018-11-11T08:54:34.652Z,15.33
2018-11-11T08:57:01.822Z,20.87
2018-11-11T08:59:28.983Z,21.67
2018-11-11T09:01:56.153Z,16.27
2018-11-11T09:04:23.298Z,25.23
2018-11-11T09:06:50.441Z,19.10
2018-11-11T09:09:17.616Z,15.50
2018-11-11T09:11:44.767Z,15.30
2018-11-11T09:14:11.954Z,15.33
2018-11-11T09:16:39.100Z,14.17
2018-11-11T09:19:06.281Z,13.53
2018-11-11T09:21:33.520Z,14.27
2018-11-11T09:24:00.732Z,14.43
2018-11-11T09:26:27.953Z,14.93
2018-11-11T09:28:55.111Z,14.33
2018-11-11T09:31:22.264Z,13.57
2018-11-11T09:33:49.436Z,12.27
2018-11-11T09:36:16.560Z,12.57
2018-11-11T09:41:52.352Z,12.37
2018-11-11T09:44:19.522Z,12.10
2018-11-11T09:46:46.681Z,11.43
2018-11-11T09:49:13.834Z,11.67
2018-11-11T09:51:41.058Z,11.47
2018-11-11T09:54:08.248Z,11.50
2018-11-11T09:56:35.721Z,11.73
2018-11-11T09:59:03.041Z,10.85
2018-11-11T10:01:30.405Z,11.63
2018-11-11T10:04:02.161Z,10.60
2018-11-11T10:07:35.832Z,10.45
2018-11-11T10:10:11.384Z,10.40
2018-11-11T10:12:47.227Z,13.25
2018-11-11T10:15:22.599Z,9.10
2018-11-11T10:19:58.493Z,9.25
2018-11-11T10:23:32.033Z,13.45
2018-11-11T10:26:06.076Z,12.03
2018-11-11T10:28:41.096Z,11.15
2018-11-11T10:31:15.735Z,10.08
2018-11-11T10:33:51.992Z,15.15
2018-11-11T10:36:59.798Z,11.43
2018-11-11T10:39:30.111Z,8.75
2018-11-11T10:42:18.535Z,8.40
2018-11-11T10:45:10.286Z,7.85
2018-11-11T10:48:09.823Z,7.90
2018-11-11T10:50:41.540Z,7.50
2018-11-11T10:53:08.724Z,8.10
2018-11-11T10:55:35.900Z,8.23
2018-11-11T10:58:03.136Z,8.50
2018-11-11T11:00:36.154Z,8.45
2018-11-11T11:03:07.995Z,8.43
2018-11-11T11:05:35.424Z,7.62
2018-11-11T11:08:02.649Z,7.92
2018-11-11T11:10:29.834Z,7.60
2018-11-11T11:12:56.996Z,8.75
2018-11-11T11:15:24.179Z,9.10
2018-11-11T11:17:51.384Z,8.70
2018-11-11T11:20:18.561Z,8.15
2018-11-11T11:22:45.769Z,8.23
2018-11-11T11:25:12.905Z,8.28
2018-11-11T11:27:40.920Z,8.18
2018-11-11T11:30:09.634Z,8.20
2018-11-11T11:32:36.813Z,8.05
2018-11-11T11:35:04.444Z,8.80
2018-11-11T11:37:31.685Z,8.30
2018-11-11T11:39:58.932Z,8.15
2018-11-11T11:42:26.172Z,8.00
2018-11-11T11:44:53.329Z,7.97
2018-11-11T11:47:20.645Z,8.33
2018-11-11T11:49:47.802Z,8.20
2018-11-11T11:52:15.017Z,7.60
2018-11-11T11:54:42.120Z,7.45
2018-11-11T11:57:09.293Z,7.80
2018-11-11T11:59:36.453Z,7.72
2018-11-11T12:02:04.112Z,7.95
2018-11-11T12:04:31.298Z,7.62
2018-11-11T12:06:58.476Z,7.45
2018-11-11T12:09:25.697Z,7.03
2018-11-11T12:11:52.833Z,7.90
2018-11-11T12:14:20.013Z,6.37
2018-11-11T12:16:47.347Z,6.65
2018-11-11T12:19:14.449Z,6.62
2018-11-11T12:21:41.620Z,6.85
2018-11-11T12:24:08.767Z,6.28
2018-11-11T12:26:35.960Z,6.83
2018-11-11T12:29:03.153Z,6.67
2018-11-11T12:31:30.313Z,6.35
2018-11-11T12:33:57.549Z,5.83
2018-11-11T12:36:24.756Z,6.12
2018-11-11T12:38:51.982Z,6.55
2018-11-11T12:41:19.155Z,6.03
2018-11-11T12:43:46.407Z,6.20
2018-11-11T12:46:13.605Z,5.90
2018-11-11T12:48:40.788Z,5.83
2018-11-11T12:51:07.943Z,5.87
2018-11-11T12:53:35.132Z,6.55
2018-11-11T12:56:02.329Z,5.83
2018-11-11T12:58:29.506Z,5.97
2018-11-11T13:00:56.713Z,5.80
2018-11-11T13:03:23.900Z,5.58
2018-11-11T13:05:51.100Z,4.28
2018-11-11T13:08:18.264Z,3.27
2018-11-11T13:10:45.453Z,4.15
2018-11-11T13:13:12.593Z,5.72
2018-11-11T13:15:39.772Z,5.80
2018-11-11T13:18:06.979Z,6.60
2018-11-11T13:20:34.161Z,6.37
2018-11-11T13:23:01.574Z,6.37
2018-11-11T13:25:28.577Z,6.30
2018-11-11T13:27:55.767Z,7.40
2018-11-11T13:30:22.938Z,6.78
2018-11-11T13:32:50.108Z,7.28
2018-11-11T13:35:17.258Z,8.03
2018-11-11T13:37:44.489Z,7.60
2018-11-11T13:40:13.460Z,7.47
2018-11-11T13:42:40.804Z,7.87
2018-11-11T13:45:09.190Z,8.00
2018-11-11T13:47:36.358Z,8.50
2018-11-11T13:50:03.989Z,8.75
2018-11-11T13:52:31.350Z,8.80
2018-11-11T13:54:58.531Z,8.18
2018-11-11T13:57:25.696Z,8.45
2018-11-11T13:59:52.859Z,8.95
2018-11-11T14:02:20.311Z,8.10
2018-11-11T14:04:47.616Z,8.03
2018-11-11T14:07:14.853Z,7.95
2018-11-11T14:09:42.041Z,8.40
2018-11-11T14:12:09.297Z,8.10
2018-11-11T14:14:36.463Z,8.75
2018-11-11T14:17:03.718Z,9.08
2018-11-11T14:19:31.121Z,9.80
2018-11-11T14:21:58.283Z,8.98
2018-11-11T14:24:25.458Z,10.20
2018-11-11T14:26:52.682Z,10.13
2018-11-11T14:29:19.885Z,10.53
2018-11-11T14:31:47.057Z,11.10
2018-11-11T14:34:14.229Z,10.13
2018-11-11T14:36:41.425Z,10.53
2018-11-11T14:39:09.644Z,11.75
2018-11-11T14:41:36.834Z,10.57
2018-11-11T14:44:04.313Z,12.17
2018-11-11T14:46:31.493Z,11.35
2018-11-11T14:48:58.691Z,12.13
2018-11-11T14:51:25.856Z,12.37
2018-11-11T14:53:53.024Z,11.80
2018-11-11T14:56:20.200Z,11.83
2018-11-11T14:58:47.494Z,13.43
2018-11-11T15:01:14.643Z,11.57
2018-11-11T15:03:41.783Z,11.97
2018-11-11T15:06:09.001Z,12.57
2018-11-11T15:08:36.159Z,13.00
2018-11-11T15:11:03.504Z,13.30
2018-11-11T15:13:30.686Z,12.93
2018-11-11T15:15:57.923Z,12.10
2018-11-11T15:18:25.074Z,13.00
2018-11-11T15:20:52.614Z,13.17
2018-11-11T15:23:19.422Z,17.27
2018-11-11T15:25:46.585Z,16.93
2018-11-11T15:28:13.762Z,16.57
2018-11-11T15:30:40.991Z,14.43
2018-11-11T15:33:08.277Z,14.57
2018-11-11T15:35:35.531Z,11.90
2018-11-11T15:38:02.714Z,13.47
2018-11-11T15:40:33.181Z,13.57
2018-11-11T15:43:00.467Z,13.50
2018-11-11T15:45:28.911Z,19.13
2018-11-11T15:47:56.172Z,16.80
2018-11-11T15:50:24.653Z,12.47
2018-11-11T15:52:53.252Z,13.20
2018-11-11T15:55:21.600Z,11.73
2018-11-11T15:57:48.813Z,12.43
2018-11-11T16:00:17.460Z,13.90
2018-11-11T16:02:45.124Z,12.23
2018-11-11T16:05:13.001Z,14.03
2018-11-11T16:07:41.069Z,14.73
2018-11-11T16:10:10.053Z,13.93
2018-11-11T16:12:37.393Z,12.77
2018-11-11T16:15:07.626Z,13.10
2018-11-11T16:17:34.807Z,16.00
2018-11-11T16:20:02.065Z,14.67
2018-11-11T16:22:29.217Z,16.90
2018-11-11T16:24:56.439Z,14.77
2018-11-11T16:27:23.625Z,16.50
2018-11-11T16:29:50.858Z,13.10
2018-11-11T16:32:18.074Z,14.20
2018-11-11T16:34:45.241Z,15.63
2018-11-11T16:37:13.322Z,18.10
2018-11-11T16:39:40.661Z,18.23
2018-11-11T16:42:07.781Z,16.00
2018-11-11T16:44:35.015Z,16.30
2018-11-11T16:47:02.200Z,19.70
2018-11-11T16:49:29.410Z,23.77
2018-11-11T16:51:56.597Z,15.00
2018-11-11T16:54:23.812Z,14.27
2018-11-11T16:56:50.997Z,12.90
2018-11-11T16:59:18.218Z,13.53
2018-11-11T17:01:45.425Z,13.60
2018-11-11T17:04:12.682Z,12.93
2018-11-11T17:06:39.832Z,13.03
2018-11-11T17:09:09.514Z,13.27
2018-11-11T17:11:36.723Z,13.63
2018-11-11T17:14:03.971Z,14.40
2018-11-11T17:16:31.204Z,15.67
2018-11-11T17:18:58.390Z,15.47
2018-11-11T17:21:25.603Z,15.10
2018-11-11T17:23:52.750Z,15.33
2018-11-11T17:26:19.948Z,14.50
2018-11-11T17:28:47.173Z,15.60
2018-11-11T17:31:14.330Z,15.33
2018-11-11T17:33:41.521Z,16.37
2018-11-11T17:36:08.701Z,17.67
2018-11-11T17:38:35.957Z,15.63
2018-11-11T17:41:03.137Z,16.70
2018-11-11T17:43:30.308Z,16.33
2018-11-11T17:45:57.501Z,16.97
2018-11-11T17:48:24.697Z,16.30
2018-11-11T17:50:51.829Z,16.70
2018-11-11T17:53:19.110Z,16.07
2018-11-11T17:55:46.348Z,16.23
2018-11-11T17:58:13.533Z,17.07
2018-11-11T18:00:40.740Z,17.43
2018-11-11T18:03:07.932Z,16.60
2018-11-11T18:05:35.173Z,15.70
2018-11-11T18:08:02.402Z,16.93
2018-11-11T18:10:29.703Z,17.43
2018-11-11T18:12:56.868Z,16.30
2018-11-11T18:15:25.516Z,15.77
2018-11-11T18:17:52.704Z,15.23
2018-11-11T18:20:21.260Z,16.80
2018-11-11T18:22:49.200Z,16.30
2018-11-11T18:25:16.560Z,15.23
2018-11-11T18:27:43.928Z,16.13
2018-11-11T18:30:17.480Z,15.60
2018-11-11T18:32:45.017Z,17.10
2018-11-11T18:35:13.467Z,16.33
2018-11-11T18:37:40.707Z,16.50
2018-11-11T18:40:09.406Z,16.47
2018-11-11T18:42:36.656Z,17.83
2018-11-11T18:45:04.580Z,16.30
2018-11-11T18:47:31.825Z,16.43
2018-11-11T18:49:58.955Z,14.80
2018-11-11T18:52:26.137Z,15.33
2018-11-11T18:54:53.329Z,14.90
2018-11-11T18:57:20.701Z,15.83
2018-11-11T18:59:47.743Z,16.33
2018-11-11T19:02:14.907Z,18.17
2018-11-11T19:04:42.130Z,16.83
2018-11-11T19:07:09.345Z,16.93
2018-11-11T19:09:36.526Z,16.60
2018-11-11T19:12:04.149Z,20.13
2018-11-11T19:14:31.353Z,17.67
2018-11-11T19:16:58.521Z,17.50
2018-11-11T19:19:25.704Z,17.30
2018-11-11T19:21:52.905Z,18.67
2018-11-11T19:24:20.165Z,17.77
2018-11-11T19:26:47.311Z,17.63
2018-11-11T19:29:14.489Z,17.90
2018-11-11T19:31:41.885Z,17.63
2018-11-11T19:34:09.080Z,17.00
2018-11-11T19:36:36.285Z,20.00
2018-11-11T19:39:07.034Z,17.93
2018-11-11T19:41:34.364Z,18.37
2018-11-11T19:44:01.542Z,17.63
2018-11-11T19:46:28.727Z,17.70
2018-11-11T19:48:55.932Z,19.23
2018-11-11T19:51:23.125Z,17.60
2018-11-11T19:53:50.335Z,18.97
2018-11-11T19:56:17.510Z,17.67
2018-11-11T19:58:44.693Z,19.27
2018-11-11T20:01:11.906Z,17.83
2018-11-11T20:03:39.114Z,19.17
2018-11-11T20:06:06.316Z,19.40
2018-11-11T20:08:33.538Z,18.20
2018-11-11T20:11:00.725Z,17.90
2018-11-11T20:13:27.940Z,19.03
2018-11-11T20:15:55.336Z,19.90
2018-11-11T20:18:22.541Z,20.70
2018-11-11T20:20:50.273Z,19.30
2018-11-11T20:23:17.509Z,20.83
2018-11-11T20:25:44.677Z,19.43
2018-11-11T20:28:11.923Z,19.13
2018-11-11T20:30:39.070Z,17.30
2018-11-11T20:33:06.462Z,17.93
2018-11-11T20:35:33.811Z,17.07
2018-11-11T20:38:01.236Z,16.57
2018-11-11T20:40:28.825Z,17.20
2018-11-11T20:42:56.481Z,18.23
2018-11-11T20:45:26.106Z,18.20
2018-11-11T20:47:53.270Z,18.67
2018-11-11T20:50:21.769Z,17.93
2018-11-11T20:52:50.740Z,20.17
2018-11-11T20:55:18.504Z,17.73
2018-11-11T20:57:45.681Z,19.70
2018-11-11T21:00:15.647Z,19.00
2018-11-11T21:02:42.906Z,19.80
2018-11-11T21:05:12.085Z,19.80
2018-11-11T21:07:39.731Z,20.33
2018-11-11T21:10:09.154Z,20.60
2018-11-11T21:12:36.404Z,19.90
2018-11-11T21:15:04.536Z,20.87
2018-11-11T21:17:31.726Z,20.17
2018-11-11T21:19:58.910Z,20.67
2018-11-11T21:22:26.090Z,19.60
2018-11-11T21:24:53.381Z,18.87
2018-11-11T21:27:20.625Z,21.23
2018-11-11T21:29:47.834Z,21.80
2018-11-11T21:32:15.030Z,20.50
2018-11-11T21:34:42.221Z,21.30
2018-11-11T21:37:09.458Z,21.43
2018-11-11T21:39:36.613Z,19.50
2018-11-11T21:42:04.031Z,20.60
2018-11-11T21:44:31.265Z,21.20
2018-11-11T21:46:58.378Z,20.47
2018-11-11T21:49:25.638Z,19.60
2018-11-11T21:51:52.889Z,22.60
2018-11-11T21:54:20.120Z,27.50
2018-11-11T21:56:47.295Z,21.10
2018-11-11T21:59:14.444Z,20.90
2018-11-11T22:01:41.609Z,20.37
2018-11-11T22:04:08.760Z,21.63
2018-11-11T22:06:35.968Z,23.97
2018-11-11T22:09:05.560Z,23.23
2018-11-11T22:11:32.988Z,23.07
2018-11-11T22:14:00.111Z,21.93
2018-11-11T22:16:27.571Z,22.07
2018-11-11T22:18:54.765Z,21.17
2018-11-11T22:21:22.004Z,20.80
2018-11-11T22:23:49.175Z,21.40
2018-11-11T22:26:16.330Z,17.10
2018-11-11T22:28:43.652Z,16.70
2018-11-11T22:31:10.810Z,20.50
2018-11-11T22:33:45.641Z,20.60
2018-11-11T22:36:12.948Z,22.07
2018-11-11T22:38:40.137Z,22.33
2018-11-11T22:41:07.371Z,21.57
2018-11-11T22:43:34.546Z,22.00
2018-11-11T22:46:01.728Z,20.50
2018-11-11T22:48:28.909Z,21.90
2018-11-11T22:50:56.124Z,21.37
2018-11-11T22:53:23.422Z,21.10
2018-11-11T22:55:50.726Z,21.80
2018-11-11T22:58:17.889Z,23.33
2018-11-11T23:00:51.083Z,22.70
2018-11-11T23:03:18.289Z,20.20
2018-11-11T23:05:45.642Z,18.57
2018-11-11T23:08:13.081Z,18.07
2018-11-11T23:10:40.265Z,18.87
2018-11-11T23:13:07.429Z,21.00
2018-11-11T23:15:34.557Z,20.10
2018-11-11T23:18:01.746Z,19.30
2018-11-11T23:20:28.910Z,19.57
2018-11-11T23:22:56.279Z,20.30
2018-11-11T23:25:23.496Z,18.77
2018-11-11T23:27:50.676Z,19.00
2018-11-11T23:30:19.070Z,18.70
2018-11-11T23:32:46.740Z,19.50
2018-11-11T23:35:14.026Z,20.13
2018-11-11T23:37:41.776Z,20.30
2018-11-11T23:40:10.418Z,21.30
2018-11-11T23:42:37.739Z,20.63
2018-11-11T23:45:05.225Z,19.50
2018-11-11T23:47:32.408Z,19.33
2018-11-11T23:49:59.590Z,20.70
2018-11-11T23:52:26.761Z,20.50
2018-11-11T23:54:53.937Z,22.00
2018-11-11T23:57:21.105Z,20.30
2018-11-11T23:59:48.297Z,20.00
